Time;durP1;ratioP1;P1;durP2;ratioP2;P2;SDS_P1;SDS_P2;PMS_P1;PMS_P2;Temp;Humidity;BMP_temperature;BMP_pressure;BME280_temperature;BME280_humidity;BME280_pressure;Samples;Min_cycle;Max_cycle;Signal;HPM_P1;HPM_P2
2022/09/22 00:01:24;;;;;;;23.15;3.05;;;35.80;53.70;;;;;;5149995;27;20118;-61
2022/09/22 00:03:56;;;;;;;21.08;3.55;;;35.80;54.30;;;;;;5149762;27;20400;-61
2022/09/22 00:06:25;;;;;;;13.77;2.83;;;35.80;53.70;;;;;;5133729;27;20031;-60
2022/09/22 00:09:00;;;;;;;15.75;3.40;;;35.80;52.90;;;;;;5129088;27;20493;-59
2022/09/22 00:11:32;;;;;;;15.63;3.25;;;35.70;53.20;;;;;;5129602;27;20394;-60
2022/09/22 00:14:10;;;;;;;11.35;3.65;;;35.70;52.90;;;;;;5132035;27;20038;-59
2022/09/22 00:16:51;;;;;;;15.75;3.50;;;35.70;52.80;;;;;;5128514;27;20069;-58
2022/09/22 00:19:26;;;;;;;15.77;3.00;;;35.80;52.80;;;;;;5149377;27;20504;-61
2022/09/22 00:21:53;;;;;;;15.38;3.08;;;35.70;52.50;;;;;;5131893;27;20056;-60
2022/09/22 00:24:21;;;;;;;32.30;5.22;;;35.70;52.50;;;;;;5131258;27;20504;-59
2022/09/22 00:26:49;;;;;;;17.80;3.42;;;35.70;52.90;;;;;;5131298;27;20022;-59
2022/09/22 00:29:16;;;;;;;22.60;3.63;;;35.70;53.30;;;;;;5149127;27;20023;-60
2022/09/22 00:31:44;;;;;;;16.15;4.07;;;35.70;53.00;;;;;;5114651;27;20029;-60
2022/09/22 00:34:20;;;;;;;16.90;3.60;;;35.70;52.40;;;;;;5125322;27;20106;-61
2022/09/22 00:36:47;;;;;;;13.23;3.80;;;35.60;52.30;;;;;;5112960;27;20027;-64
2022/09/22 00:39:14;;;;;;;12.30;2.55;;;35.60;52.70;;;;;;5132061;27;20026;-63
2022/09/22 00:41:44;;;;;;;14.93;3.60;;;35.50;52.90;;;;;;5128548;27;20042;-63
2022/09/22 00:44:37;;;;;;;13.88;3.40;;;35.50;53.20;;;;;;5146637;27;20033;-60
2022/09/22 00:47:32;;;;;;;11.40;2.88;;;35.60;53.10;;;;;;5131095;27;20023;-60
2022/09/22 00:50:16;;;;;;;21.45;3.97;;;35.50;53.00;;;;;;5148008;27;20041;-61
2022/09/22 00:52:58;;;;;;;12.65;3.60;;;35.40;53.00;;;;;;5128041;27;20026;-62
2022/09/22 00:55:50;;;;;;;10.32;3.35;;;35.40;53.10;;;;;;5126186;27;20019;-60
2022/09/22 00:58:20;;;;;;;13.55;3.25;;;35.40;53.10;;;;;;5113183;27;20107;-60
2022/09/22 01:00:47;;;;;;;21.90;3.28;;;35.40;53.20;;;;;;5112351;27;20073;-60
2022/09/22 01:03:21;;;;;;;14.50;3.50;;;35.40;53.20;;;;;;5128482;27;20373;-60
2022/09/22 01:05:51;;;;;;;15.52;3.75;;;35.40;53.10;;;;;;5148877;27;20031;-63
2022/09/22 01:08:19;;;;;;;23.42;3.58;;;35.40;53.30;;;;;;5129840;27;20159;-61
2022/09/22 01:10:48;;;;;;;21.15;3.70;;;35.30;53.40;;;;;;5129766;27;20022;-61
2022/09/22 01:13:26;;;;;;;10.65;3.67;;;35.30;53.60;;;;;;5128880;27;20674;-61
2022/09/22 01:16:04;;;;;;;15.55;3.00;;;35.20;53.60;;;;;;5112102;27;20015;-61
2022/09/22 01:19:04;;;;;;;13.75;2.80;;;35.10;53.70;;;;;;5131275;27;20126;-60
2022/09/22 01:21:41;;;;;;;16.02;3.88;;;35.10;54.00;;;;;;5116717;27;20113;-62
2022/09/22 01:24:10;;;;;;;;;;;35.00;53.80;;;;;;5130945;27;20019;-63
2022/09/22 01:26:48;;;;;;;20.60;3.53;;;35.00;54.30;;;;;;5131708;27;19914;-60
2022/09/22 01:29:41;;;;;;;15.13;3.22;;;34.90;53.90;;;;;;5131922;27;20137;-60
2022/09/22 01:32:16;;;;;;;12.68;3.63;;;34.90;54.70;;;;;;5148156;27;20333;-61
2022/09/22 01:34:46;;;;;;;13.80;3.00;;;34.90;54.70;;;;;;5131462;27;20114;-60
2022/09/22 01:37:19;;;;;;;13.98;3.38;;;34.80;54.60;;;;;;5131594;27;20054;-61
2022/09/22 01:39:57;;;;;;;13.32;3.20;;;34.80;54.80;;;;;;5131914;27;20027;-62
2022/09/22 01:42:38;;;;;;;19.52;3.50;;;34.80;54.90;;;;;;5126217;27;20028;-61
2022/09/22 01:45:07;;;;;;;18.35;3.55;;;34.70;55.10;;;;;;5114131;27;20026;-61
2022/09/22 01:47:50;;;;;;;18.10;3.70;;;34.70;55.60;;;;;;5130940;27;20436;-61
2022/09/22 01:50:26;;;;;;;16.05;4.00;;;34.70;55.20;;;;;;5130852;27;20030;-58
2022/09/22 01:52:57;;;;;;;18.23;4.28;;;34.60;55.10;;;;;;5147851;27;20027;-61
2022/09/22 01:55:35;;;;;;;18.45;3.65;;;34.50;54.80;;;;;;5113260;27;20030;-61
2022/09/22 01:58:18;;;;;;;25.98;4.47;;;34.50;55.00;;;;;;5097500;27;20023;-60
2022/09/22 02:00:55;;;;;;;23.75;3.65;;;34.50;55.40;;;;;;5128111;27;20023;-59
2022/09/22 02:03:35;;;;;;;15.38;3.88;;;34.40;55.30;;;;;;5149862;27;20037;-61
2022/09/22 02:06:15;;;;;;;20.20;3.75;;;34.40;55.20;;;;;;5132606;27;20038;-61
2022/09/22 02:08:58;;;;;;;24.63;4.57;;;34.30;55.80;;;;;;5104529;28;20039;-60
2022/09/22 02:11:25;;;;;;;20.08;4.88;;;34.30;55.50;;;;;;5105662;28;20620;-59
2022/09/22 02:13:52;;;;;;;28.10;4.85;;;34.30;55.50;;;;;;5087710;28;20024;-61
2022/09/22 02:16:21;;;;;;;23.25;4.20;;;34.30;55.50;;;;;;5072295;28;20027;-60
2022/09/22 02:19:01;;;;;;;29.27;4.93;;;34.30;58.10;;;;;;5104357;28;20126;-61
2022/09/22 02:21:28;;;;;;;22.40;5.07;;;34.20;60.80;;;;;;5091675;28;20031;-60
2022/09/22 02:23:55;;;;;;;29.58;5.35;;;34.20;62.90;;;;;;5106386;28;20024;-62
2022/09/22 02:26:27;;;;;;;23.88;4.07;;;34.20;64.40;;;;;;5109611;28;20530;-62
2022/09/22 02:29:06;;;;;;;36.03;4.75;;;34.20;65.70;;;;;;5110997;28;20034;-60
2022/09/22 02:31:38;;;;;;;27.10;5.88;;;34.20;65.80;;;;;;5112118;28;20026;-61
2022/09/22 02:34:05;;;;;;;40.85;6.20;;;34.20;66.00;;;;;;5094646;28;20019;-58
2022/09/22 02:36:57;;;;;;;21.95;5.35;;;34.20;65.60;;;;;;5093164;28;20020;-61
2022/09/22 02:39:26;;;;;;;34.72;6.30;;;34.20;65.60;;;;;;5110181;28;20019;-60
2022/09/22 02:41:53;;;;;;;36.03;6.05;;;34.10;65.50;;;;;;5107695;28;20385;-61
2022/09/22 02:44:46;;;;;;;26.02;5.32;;;34.10;65.60;;;;;;5111076;28;20024;-62
2022/09/22 02:47:21;;;;;;;31.95;5.45;;;34.10;65.70;;;;;;5109649;28;20374;-60
2022/09/22 02:49:50;;;;;;;30.83;5.32;;;34.00;65.90;;;;;;5111901;28;20377;-59
2022/09/22 02:52:21;;;;;;;22.48;5.00;;;34.00;66.00;;;;;;5108759;28;20484;-60
2022/09/22 02:54:48;;;;;;;32.40;5.65;;;34.00;66.10;;;;;;5123710;27;20118;-60
2022/09/22 02:57:14;;;;;;;28.17;5.88;;;34.00;66.30;;;;;;5110736;28;20452;-60
2022/09/22 02:59:40;;;;;;;25.77;5.60;;;33.90;66.50;;;;;;5107659;28;20023;-62
2022/09/22 03:02:07;;;;;;;21.88;4.55;;;33.90;66.50;;;;;;5110422;28;20033;-60
2022/09/22 03:04:33;;;;;;;24.10;5.43;;;33.80;66.50;;;;;;5109415;28;20028;-61
2022/09/22 03:07:00;;;;;;;24.52;5.18;;;33.80;66.40;;;;;;5093254;28;20389;-61
2022/09/22 03:09:26;;;;;;;28.70;5.25;;;33.80;66.50;;;;;;5123682;27;20078;-62
2022/09/22 03:11:53;;;;;;;24.67;5.03;;;33.80;66.30;;;;;;5096295;27;20551;-60
2022/09/22 03:14:19;;;;;;;24.65;5.57;;;33.70;66.40;;;;;;5130226;27;20046;-62
2022/09/22 03:16:46;;;;;;;29.73;5.68;;;33.70;66.80;;;;;;5129535;27;20022;-60
2022/09/22 03:19:12;;;;;;;25.20;4.65;;;33.60;66.70;;;;;;5129993;27;20047;-61
2022/09/22 03:21:40;;;;;;;25.10;4.10;;;33.60;66.70;;;;;;5112968;27;20700;-61
2022/09/22 03:24:06;;;;;;;24.33;3.60;;;33.60;67.20;;;;;;5130204;27;20069;-59
2022/09/22 03:26:33;;;;;;;19.17;4.15;;;33.50;67.30;;;;;;5112923;27;20023;-60
2022/09/22 03:29:02;;;;;;;19.05;3.55;;;33.40;67.70;;;;;;5112135;27;20032;-59
2022/09/22 03:31:28;;;;;;;33.50;4.00;;;33.40;68.10;;;;;;5128185;27;20023;-60
2022/09/22 03:33:55;;;;;;;27.23;3.67;;;33.30;68.70;;;;;;5127808;27;20031;-61
2022/09/22 03:36:22;;;;;;;22.45;4.15;;;33.30;69.40;;;;;;5130789;27;20374;-60
2022/09/22 03:38:48;;;;;;;24.17;4.07;;;33.20;69.80;;;;;;5111099;27;20080;-61
2022/09/22 03:41:15;;;;;;;21.42;3.95;;;33.20;70.30;;;;;;5144505;27;20019;-60
2022/09/22 03:43:42;;;;;;;21.10;4.50;;;33.10;70.80;;;;;;5129006;27;20481;-62
2022/09/22 03:46:09;;;;;;;17.02;3.88;;;33.10;71.30;;;;;;5130803;27;20028;-62
2022/09/22 03:48:36;;;;;;;31.25;5.07;;;33.00;72.00;;;;;;5111083;27;20034;-60
2022/09/22 03:51:02;;;;;;;21.13;4.35;;;33.00;72.40;;;;;;5125041;27;20027;-61
2022/09/22 03:53:29;;;;;;;20.70;4.07;;;33.00;72.90;;;;;;5127935;27;20389;-60
2022/09/22 03:56:11;;;;;;;34.35;4.38;;;32.90;73.70;;;;;;5127266;27;20115;-60
2022/09/22 03:58:39;;;;;;;20.38;4.43;;;32.90;74.50;;;;;;5129673;27;20023;-60
2022/09/22 04:01:08;;;;;;;25.90;4.53;;;32.80;75.00;;;;;;5127792;27;20420;-59
2022/09/22 04:03:34;;;;;;;35.60;4.85;;;32.80;75.30;;;;;;5111448;27;20546;-60
2022/09/22 04:06:01;;;;;;;30.73;4.18;;;32.70;75.70;;;;;;5127221;27;20432;-59
2022/09/22 04:08:27;;;;;;;23.60;4.38;;;32.70;76.20;;;;;;5112797;27;20045;-60
2022/09/22 04:10:56;;;;;;;15.63;3.80;;;32.60;76.80;;;;;;5129837;27;20455;-59
2022/09/22 04:13:22;;;;;;;21.45;4.13;;;32.60;77.30;;;;;;5130451;27;20023;-59
2022/09/22 04:15:49;;;;;;;20.45;4.28;;;32.60;77.70;;;;;;5130000;27;20500;-59
2022/09/22 04:18:15;;;;;;;23.08;4.40;;;32.50;78.30;;;;;;5130411;27;20046;-59
2022/09/22 04:20:43;;;;;;;22.25;3.92;;;32.50;78.70;;;;;;5128842;27;20023;-59
2022/09/22 04:23:13;;;;;;;21.75;4.03;;;32.50;79.20;;;;;;5128911;27;20544;-60
2022/09/22 04:25:41;;;;;;;15.32;4.07;;;32.40;79.60;;;;;;5130663;27;20114;-59
2022/09/22 04:28:07;;;;;;;19.98;4.03;;;32.40;79.80;;;;;;5130229;27;20027;-59
2022/09/22 04:30:35;;;;;;;19.85;3.85;;;32.30;80.10;;;;;;5128701;27;20023;-60
2022/09/22 04:33:02;;;;;;;17.13;3.80;;;32.30;80.80;;;;;;5130456;27;20034;-59
2022/09/22 04:35:29;;;;;;;17.08;4.35;;;32.30;81.00;;;;;;5129652;27;20027;-61
2022/09/22 04:37:55;;;;;;;25.63;4.47;;;32.30;81.00;;;;;;5126568;27;20415;-58
2022/09/22 04:40:23;;;;;;;19.15;4.30;;;32.20;81.40;;;;;;5113499;27;20507;-60
2022/09/22 04:42:50;;;;;;;13.43;3.42;;;32.10;81.40;;;;;;5112984;27;20035;-59
2022/09/22 04:45:18;;;;;;;18.23;3.70;;;32.10;80.00;;;;;;5130331;27;20232;-59
2022/09/22 04:47:49;;;;;;;14.35;3.28;;;32.10;79.30;;;;;;5129443;27;20026;-61
2022/09/22 04:50:17;;;;;;;13.63;3.50;;;32.10;77.10;;;;;;5129853;27;20392;-59
2022/09/22 04:52:45;;;;;;;15.57;3.92;;;32.10;76.10;;;;;;5130294;27;20025;-59
2022/09/22 04:55:12;;;;;;;14.13;3.47;;;32.10;76.60;;;;;;5126785;27;20545;-58
2022/09/22 04:57:38;;;;;;;9.65;2.78;;;32.10;75.70;;;;;;5129650;27;20033;-59
2022/09/22 05:00:06;;;;;;;14.82;2.75;;;32.00;71.00;;;;;;5128169;27;20967;-62
2022/09/22 05:02:34;;;;;;;12.20;2.60;;;31.90;65.50;;;;;;5108019;27;20042;-60
2022/09/22 05:05:02;;;;;;;11.15;2.13;;;31.90;60.50;;;;;;5126413;27;20034;-60
2022/09/22 05:07:28;;;;;;;12.82;2.28;;;31.80;58.70;;;;;;5127062;27;20130;-60
2022/09/22 05:09:54;;;;;;;15.55;2.30;;;31.80;56.40;;;;;;5146891;27;20153;-65
2022/09/22 05:12:21;;;;;;;15.20;2.15;;;31.70;54.30;;;;;;5131581;27;20476;-63
2022/09/22 05:14:47;;;;;;;14.40;2.35;;;31.60;53.40;;;;;;5128163;27;20085;-61
2022/09/22 05:17:14;;;;;;;14.70;2.33;;;31.60;52.90;;;;;;5132317;27;20048;-64
2022/09/22 05:19:41;;;;;;;12.20;1.70;;;31.60;52.40;;;;;;5131508;27;20406;-63
2022/09/22 05:22:07;;;;;;;16.05;2.22;;;31.60;51.70;;;;;;5130127;27;20054;-60
2022/09/22 05:24:34;;;;;;;11.20;1.60;;;31.60;51.00;;;;;;5148689;27;20202;-59
2022/09/22 05:27:00;;;;;;;13.85;2.50;;;31.60;50.20;;;;;;5129754;27;20051;-61
2022/09/22 05:29:27;;;;;;;13.57;2.47;;;31.50;49.10;;;;;;5129297;27;20761;-60
2022/09/22 05:31:53;;;;;;;19.60;6.43;;;31.40;49.00;;;;;;5133306;27;20047;-59
2022/09/22 05:34:20;;;;;;;9.13;4.15;;;31.50;49.10;;;;;;5149407;27;20049;-60
2022/09/22 05:36:46;;;;;;;11.32;3.53;;;31.40;48.70;;;;;;5129856;27;20180;-60
2022/09/22 05:39:13;;;;;;;11.68;2.00;;;31.30;48.00;;;;;;5128946;27;20059;-59
2022/09/22 05:41:39;;;;;;;13.98;2.72;;;31.30;47.40;;;;;;5130498;27;20034;-60
2022/09/22 05:44:06;;;;;;;22.05;2.40;;;31.30;46.50;;;;;;5130687;27;20139;-60
2022/09/22 05:46:32;;;;;;;13.18;1.83;;;31.30;47.30;;;;;;5131331;27;20033;-60
2022/09/22 05:48:59;;;;;;;19.30;1.67;;;31.30;45.70;;;;;;5147743;27;20421;-61
2022/09/22 05:51:25;;;;;;;15.57;1.80;;;31.30;45.40;;;;;;5144710;27;20049;-59
2022/09/22 05:53:52;;;;;;;21.48;2.33;;;31.20;45.00;;;;;;5130975;27;20039;-60
2022/09/22 05:56:18;;;;;;;18.38;1.95;;;31.20;44.50;;;;;;5128101;27;20030;-57
2022/09/22 05:58:46;;;;;;;15.63;2.30;;;31.20;44.10;;;;;;5128680;27;20505;-59
2022/09/22 06:01:13;;;;;;;7.82;1.95;;;31.10;43.70;;;;;;5110622;27;20047;-60
2022/09/22 06:03:40;;;;;;;11.80;2.00;;;31.00;42.90;;;;;;5106810;27;20042;-60
2022/09/22 06:06:06;;;;;;;20.77;2.15;;;31.00;42.90;;;;;;5130253;27;20038;-60
2022/09/22 06:08:32;;;;;;;13.10;2.03;;;31.00;42.80;;;;;;5128043;27;20379;-60
2022/09/22 06:11:01;;;;;;;15.30;2.55;;;30.90;43.00;;;;;;5144814;27;20086;-58
2022/09/22 06:13:28;;;;;;;18.75;2.30;;;31.00;43.00;;;;;;5143776;27;20084;-60
2022/09/22 06:15:55;;;;;;;17.38;1.73;;;31.00;42.50;;;;;;5127388;27;20031;-59
2022/09/22 06:18:21;;;;;;;12.38;2.05;;;30.90;42.00;;;;;;5128365;27;20133;-59
2022/09/22 06:20:48;;;;;;;15.10;2.10;;;30.90;42.30;;;;;;5113059;27;20034;-60
2022/09/22 06:23:14;;;;;;;15.23;2.20;;;30.90;41.60;;;;;;5143229;27;20442;-60
2022/09/22 06:25:44;;;;;;;10.63;1.95;;;30.80;41.80;;;;;;5129253;27;20046;-60
2022/09/22 06:28:15;;;;;;;10.05;1.27;;;30.80;40.60;;;;;;5125467;27;20043;-60
2022/09/22 06:30:41;;;;;;;19.98;1.95;;;30.80;40.80;;;;;;5130004;27;20050;-60
2022/09/22 06:33:10;;;;;;;18.90;2.13;;;30.70;40.90;;;;;;5130630;27;20060;-60
2022/09/22 06:35:36;;;;;;;16.35;2.00;;;30.70;40.40;;;;;;5095600;27;20217;-60
2022/09/22 06:38:08;;;;;;;20.10;2.25;;;30.80;41.00;;;;;;5130497;27;20050;-61
2022/09/22 06:40:35;;;;;;;29.95;2.78;;;30.80;40.90;;;;;;5129080;27;20483;-61
2022/09/22 06:43:11;;;;;;;16.67;1.90;;;30.70;40.70;;;;;;5128831;27;20492;-61
2022/09/22 06:45:38;;;;;;;;;;;30.70;41.00;;;;;;5130441;27;20077;-60
2022/09/22 06:48:04;;;;;;;15.00;2.30;;;30.70;40.70;;;;;;5129323;27;20259;-62
2022/09/22 06:50:31;;;;;;;22.20;2.28;;;30.70;40.30;;;;;;5113249;27;20548;-60
2022/09/22 06:52:59;;;;;;;22.50;2.50;;;30.60;41.20;;;;;;5130622;27;20135;-61
2022/09/22 06:55:30;;;;;;;22.85;2.03;;;30.60;41.90;;;;;;5129967;27;20040;-61
2022/09/22 06:58:01;;;;;;;17.00;1.95;;;30.60;42.00;;;;;;5147625;27;20569;-61
2022/09/22 07:00:33;;;;;;;12.32;1.80;;;30.60;42.40;;;;;;5147891;27;20038;-63
2022/09/22 07:03:25;;;;;;;21.58;2.22;;;30.60;43.30;;;;;;5113472;27;20126;-60
2022/09/22 07:05:57;;;;;;;15.88;2.05;;;30.50;44.10;;;;;;5140181;27;20089;-59
2022/09/22 07:08:24;;;;;;;23.50;1.95;;;30.50;44.90;;;;;;5147043;27;20071;-59
2022/09/22 07:11:02;;;;;;;14.13;2.13;;;30.50;44.60;;;;;;5096097;27;20059;-59
2022/09/22 07:13:31;;;;;;;14.30;1.83;;;30.40;45.30;;;;;;5132830;27;20038;-59
2022/09/22 07:16:03;;;;;;;16.55;2.20;;;30.40;44.90;;;;;;5098749;27;20068;-60
2022/09/22 07:18:30;;;;;;;16.50;1.80;;;30.30;45.90;;;;;;5133013;27;20054;-60
2022/09/22 07:21:05;;;;;;;24.38;2.15;;;30.30;46.30;;;;;;5133628;27;20120;-61
2022/09/22 07:23:34;;;;;;;15.73;2.22;;;30.30;45.70;;;;;;5132759;27;20051;-59
2022/09/22 07:26:03;;;;;;;17.50;2.00;;;30.30;45.20;;;;;;5116140;27;20064;-60
2022/09/22 07:28:31;;;;;;;18.95;2.45;;;30.30;45.30;;;;;;5119330;27;20047;-59
2022/09/22 07:31:05;;;;;;;24.40;2.20;;;30.40;46.00;;;;;;5135450;27;20056;-60
2022/09/22 07:33:33;;;;;;;20.63;2.65;;;30.40;44.60;;;;;;5117227;27;20047;-60
2022/09/22 07:36:07;;;;;;;27.60;2.75;;;30.40;45.00;;;;;;5117134;27;20124;-61
2022/09/22 07:38:38;;;;;;;13.20;1.77;;;30.40;45.20;;;;;;5133299;27;20048;-62
2022/09/22 07:41:18;;;;;;;24.98;2.38;;;30.40;43.90;;;;;;5115732;27;20039;-59
2022/09/22 07:43:48;;;;;;;13.32;2.03;;;30.50;44.80;;;;;;5130861;27;20067;-62
2022/09/22 07:46:14;;;;;;;22.25;2.25;;;30.40;45.80;;;;;;5116231;27;20047;-61
2022/09/22 07:48:46;;;;;;;19.45;2.13;;;30.40;45.70;;;;;;5133985;27;20090;-59
2022/09/22 07:51:21;;;;;;;26.92;2.53;;;30.40;45.10;;;;;;5150280;27;20123;-59
2022/09/22 07:53:49;;;;;;;32.72;3.00;;;30.40;45.10;;;;;;5132440;27;20089;-59
2022/09/22 07:56:20;;;;;;;22.30;3.38;;;30.40;45.10;;;;;;5115908;27;20399;-60
2022/09/22 07:58:52;;;;;;;20.88;2.50;;;30.30;45.20;;;;;;5148308;27;20701;-60
2022/09/22 08:01:25;;;;;;;21.23;2.38;;;30.30;45.90;;;;;;5149760;27;20049;-60
2022/09/22 08:03:51;;;;;;;24.83;3.03;;;30.30;45.00;;;;;;5133859;27;20501;-60
2022/09/22 08:06:19;;;;;;;17.50;2.78;;;30.30;45.10;;;;;;5130531;27;20056;-61
2022/09/22 08:08:52;;;;;;;16.77;2.55;;;30.30;45.60;;;;;;5132122;27;20554;-60
2022/09/22 08:11:21;;;;;;;22.45;2.10;;;30.30;45.40;;;;;;5133436;27;20044;-60
2022/09/22 08:13:54;;;;;;;25.67;2.70;;;30.40;45.20;;;;;;5133194;27;20055;-60
2022/09/22 08:16:26;;;;;;;30.05;2.42;;;30.40;45.20;;;;;;5132246;27;20042;-61
2022/09/22 08:18:57;;;;;;;14.57;2.10;;;30.30;43.50;;;;;;5132438;27;20104;-58
2022/09/22 08:21:25;;;;;;;28.02;2.00;;;30.30;42.50;;;;;;5131681;27;20079;-60
2022/09/22 08:23:53;;;;;;;19.88;1.83;;;30.30;41.60;;;;;;5151349;27;20916;-60
2022/09/22 08:26:22;;;;;;;20.48;2.05;;;30.30;41.90;;;;;;5149965;27;20037;-60
2022/09/22 08:28:54;;;;;;;21.73;2.15;;;30.30;42.00;;;;;;5132357;27;20061;-60
2022/09/22 08:31:22;;;;;;;16.80;1.52;;;30.30;41.60;;;;;;5130817;27;20119;-62
2022/09/22 08:33:51;;;;;;;20.63;1.73;;;30.30;41.40;;;;;;5118920;27;20055;-59
2022/09/22 08:36:17;;;;;;;17.10;1.40;;;30.40;42.10;;;;;;5132835;27;20065;-61
2022/09/22 08:38:48;;;;;;;22.08;1.90;;;30.30;41.90;;;;;;5148739;27;20061;-60
2022/09/22 08:41:37;;;;;;;20.10;1.70;;;30.30;42.40;;;;;;5151087;27;20036;-60
2022/09/22 08:44:07;;;;;;;9.77;1.45;;;30.30;42.10;;;;;;5149125;27;20169;-61
2022/09/22 08:46:38;;;;;;;23.58;2.15;;;30.30;42.00;;;;;;5147519;27;20057;-60
2022/09/22 08:52:37;;;;;;;19.65;1.63;;;30.20;41.80;;;;;;5149645;27;20097;-60
2022/09/22 08:55:06;;;;;;;12.68;0.90;;;30.10;41.60;;;;;;5129500;27;20151;-60
2022/09/22 08:57:55;;;;;;;7.15;1.35;;;30.10;41.70;;;;;;5117905;27;20037;-60
2022/09/22 09:00:26;;;;;;;7.40;1.40;;;30.20;41.60;;;;;;5114942;27;20072;-59
2022/09/22 09:03:15;;;;;;;6.40;1.30;;;30.20;41.50;;;;;;5132664;27;20039;-60
2022/09/22 09:06:08;;;;;;;11.35;1.63;;;30.10;41.40;;;;;;5145589;27;20040;-62
2022/09/22 09:09:05;;;;;;;13.48;1.50;;;30.10;41.40;;;;;;5131184;27;20144;-60
2022/09/22 09:11:59;;;;;;;12.52;1.40;;;30.10;40.90;;;;;;5130724;27;20116;-60
2022/09/22 09:14:29;;;;;;;16.65;1.55;;;30.10;40.50;;;;;;5147704;27;20033;-60
2022/09/22 09:17:09;;;;;;;16.75;1.20;;;30.10;39.60;;;;;;5133210;27;20053;-62
2022/09/22 09:19:44;;;;;;;6.47;0.95;;;30.10;38.90;;;;;;5131466;27;20058;-60
2022/09/22 09:22:37;;;;;;;13.63;1.60;;;30.10;38.90;;;;;;5114498;27;20527;-58
2022/09/22 09:25:21;;;;;;;6.85;1.27;;;30.10;38.80;;;;;;5130223;27;20059;-61
2022/09/22 09:27:52;;;;;;;5.57;1.10;;;30.00;38.10;;;;;;5114528;27;20076;-60
2022/09/22 09:30:20;;;;;;;6.18;1.25;;;30.00;38.50;;;;;;5128964;27;20069;-57
2022/09/22 09:33:00;;;;;;;8.13;0.90;;;29.90;37.90;;;;;;5130048;27;20519;-59
2022/09/22 09:35:43;;;;;;;7.57;1.00;;;29.90;38.70;;;;;;5112055;27;20038;-60
2022/09/22 09:38:27;;;;;;;4.93;1.00;;;29.90;38.30;;;;;;5131940;27;20146;-60
2022/09/22 09:41:08;;;;;;;8.68;1.10;;;29.80;38.50;;;;;;5114649;27;20509;-59
2022/09/22 09:43:36;;;;;;;10.63;1.00;;;29.90;38.30;;;;;;5128284;27;20096;-60
2022/09/22 09:46:11;;;;;;;6.18;0.98;;;29.80;38.60;;;;;;5113695;27;20131;-60
2022/09/22 09:49:04;;;;;;;5.28;0.80;;;29.80;38.70;;;;;;5148490;27;20132;-60
2022/09/22 09:51:36;;;;;;;6.68;1.15;;;29.70;38.70;;;;;;5130158;27;20090;-59
2022/09/22 09:54:06;;;;;;;1.92;0.73;;;29.70;38.00;;;;;;5130213;27;20140;-60
2022/09/22 09:56:37;;;;;;;7.55;1.10;;;29.60;39.40;;;;;;5112143;27;20042;-59
2022/09/22 10:01:53;;;;;;;12.57;1.27;;;29.60;39.00;;;;;;5146861;27;20040;-60
2022/09/22 10:04:30;;;;;;;7.22;1.25;;;29.60;39.10;;;;;;5110685;27;20066;-60
2022/09/22 10:07:22;;;;;;;4.15;1.23;;;29.60;39.30;;;;;;5144771;27;20053;-60
2022/09/22 10:09:50;;;;;;;6.47;0.90;;;29.50;38.80;;;;;;5146223;27;21579;-61
2022/09/22 10:12:29;;;;;;;7.07;1.08;;;29.50;37.80;;;;;;5147186;27;20442;-59
2022/09/22 10:14:58;;;;;;;5.30;0.90;;;29.40;38.20;;;;;;5129804;27;20059;-59
2022/09/22 10:17:38;;;;;;;4.57;1.17;;;29.40;38.70;;;;;;5149790;27;20037;-58
2022/09/22 10:20:18;;;;;;;9.73;1.38;;;29.40;37.80;;;;;;5129127;27;20052;-60
2022/09/22 10:22:45;;;;;;;4.60;0.80;;;29.40;37.90;;;;;;5147899;27;20136;-59
2022/09/22 10:25:31;;;;;;;8.13;1.35;;;29.40;37.70;;;;;;5114120;27;20050;-60
2022/09/22 10:28:08;;;;;;;;;;;29.40;36.50;;;;;;5113239;27;20048;-59
2022/09/22 10:30:39;;;;;;;4.23;0.80;;;29.30;36.80;;;;;;5148346;27;19945;-59
2022/09/22 10:33:16;;;;;;;10.40;1.42;;;29.30;37.60;;;;;;5147409;27;20036;-59
2022/09/22 10:36:06;;;;;;;4.43;1.30;;;29.30;37.60;;;;;;5128139;27;20521;-61
2022/09/22 10:38:37;;;;;;;14.55;1.40;;;29.30;37.90;;;;;;5126531;27;20516;-59
2022/09/22 10:41:06;;;;;;;2.92;0.95;;;29.30;38.20;;;;;;5129415;27;20040;-61
2022/09/22 10:43:42;;;;;;;6.35;0.90;;;29.30;38.30;;;;;;5112745;27;20982;-60
2022/09/22 10:46:43;;;;;;;6.15;1.08;;;29.30;37.50;;;;;;5130604;27;20076;-60
2022/09/22 10:49:22;;;;;;;3.15;0.98;;;29.20;37.90;;;;;;5134172;27;20512;-60
2022/09/22 10:52:00;;;;;;;7.68;1.20;;;29.20;37.50;;;;;;5135185;27;20454;-59
2022/09/22 10:54:26;;;;;;;5.28;0.88;;;29.20;36.60;;;;;;5133849;27;20142;-59
2022/09/22 10:56:58;;;;;;;7.05;1.08;;;29.10;36.70;;;;;;5133786;27;20041;-60
2022/09/22 11:00:01;;;;;;;5.85;0.95;;;29.10;37.10;;;;;;5117547;27;20052;-60
2022/09/22 11:02:40;;;;;;;5.72;0.95;;;29.10;36.70;;;;;;5133896;27;20068;-62
2022/09/22 11:14:26;;;;;;;4.40;1.30;;;29.10;38.40;;;;;;5135700;27;20113;-60
2022/09/22 11:17:11;;;;;;;3.58;0.90;;;29.10;38.40;;;;;;5134808;27;20038;-60
2022/09/22 11:19:57;;;;;;;4.95;1.05;;;29.10;39.00;;;;;;5151501;27;20308;-62
2022/09/22 11:22:47;;;;;;;9.57;1.08;;;29.10;39.10;;;;;;5115868;27;20043;-60
2022/09/22 11:25:51;;;;;;;2.63;1.00;;;29.10;39.40;;;;;;5132990;27;20051;-60
2022/09/22 11:28:23;;;;;;;14.48;1.63;;;29.10;40.30;;;;;;5133162;27;20053;-59
2022/09/22 11:30:51;;;;;;;5.03;1.20;;;29.00;39.70;;;;;;5150377;27;20203;-59
2022/09/22 11:33:21;;;;;;;3.50;1.02;;;28.90;40.10;;;;;;5116233;27;20085;-61
2022/09/22 11:36:06;;;;;;;7.95;1.40;;;29.00;41.10;;;;;;5132352;27;20111;-60
2022/09/22 11:38:47;;;;;;;8.35;1.15;;;28.90;41.40;;;;;;5132418;27;20061;-61
2022/09/22 11:41:20;;;;;;;9.20;1.30;;;28.90;42.20;;;;;;5134088;27;20053;-61
2022/09/22 11:43:59;;;;;;;9.85;1.75;;;28.80;42.70;;;;;;5133221;27;20067;-60
2022/09/22 11:46:38;;;;;;;8.85;1.33;;;28.80;44.30;;;;;;5134539;27;20061;-60
2022/09/22 11:49:20;;;;;;;7.40;1.42;;;28.70;45.00;;;;;;5116345;27;20056;-60
2022/09/22 11:52:12;;;;;;;9.82;1.40;;;28.60;45.40;;;;;;5131513;27;20057;-60
2022/09/22 11:55:13;;;;;;;10.57;1.30;;;28.70;45.90;;;;;;5145786;27;21574;-62
2022/09/22 11:57:44;;;;;;;5.10;1.30;;;28.60;45.20;;;;;;5034256;28;20067;-59
2022/09/22 12:00:17;;;;;;;11.30;1.20;;;28.60;45.50;;;;;;5034634;28;20053;-61
2022/09/22 12:02:59;;;;;;;6.13;0.90;;;28.60;46.30;;;;;;5031420;28;20071;-61
2022/09/22 12:05:29;;;;;;;4.90;1.17;;;28.60;47.10;;;;;;5047928;28;20188;-60
2022/09/22 12:08:13;;;;;;;4.43;1.10;;;28.60;47.50;;;;;;5053970;28;20069;-59
2022/09/22 12:10:46;;;;;;;8.80;1.00;;;28.60;48.00;;;;;;5031116;28;20070;-62
2022/09/22 12:13:25;;;;;;;5.05;1.23;;;28.50;47.70;;;;;;5031968;28;20057;-60
2022/09/22 12:16:04;;;;;;;15.68;1.20;;;28.40;47.80;;;;;;5047426;28;20543;-60
2022/09/22 12:18:34;;;;;;;9.90;1.45;;;28.30;48.10;;;;;;5048269;28;20049;-60
2022/09/22 12:21:12;;;;;;;11.90;1.10;;;28.30;48.70;;;;;;5048501;28;20560;-60
2022/09/22 12:23:44;;;;;;;10.82;1.35;;;28.40;48.60;;;;;;5047456;28;20081;-57
2022/09/22 12:26:23;;;;;;;11.05;1.48;;;28.30;48.50;;;;;;5032019;28;20067;-60
2022/09/22 12:28:50;;;;;;;7.15;1.25;;;28.20;48.70;;;;;;5046850;28;20085;-60
2022/09/22 12:31:19;;;;;;;5.88;1.08;;;28.10;49.00;;;;;;5031270;28;20154;-61
2022/09/22 12:33:50;;;;;;;8.15;1.60;;;28.10;48.90;;;;;;5076310;27;20099;-60
2022/09/22 12:36:33;;;;;;;8.02;1.67;;;28.10;49.20;;;;;;5131606;27;20066;-59
2022/09/22 12:39:10;;;;;;;6.45;1.40;;;28.00;49.20;;;;;;5114108;27;20073;-60
2022/09/22 12:42:01;;;;;;;8.95;1.40;;;28.00;48.70;;;;;;5148071;27;20131;-61
2022/09/22 12:44:36;;;;;;;4.40;1.30;;;27.90;48.80;;;;;;5148458;27;20049;-60
2022/09/22 12:47:41;;;;;;;6.07;1.52;;;27.90;49.10;;;;;;5133528;27;20047;-60
2022/09/22 12:50:28;;;;;;;8.00;1.30;;;27.80;48.70;;;;;;5128099;27;20081;-59
2022/09/22 12:53:01;;;;;;;10.73;1.42;;;27.80;48.80;;;;;;5120981;27;20086;-59
2022/09/22 12:55:27;;;;;;;5.65;1.30;;;27.70;48.50;;;;;;5132838;27;20516;-60
2022/09/22 12:57:56;;;;;;;6.15;1.27;;;27.70;48.70;;;;;;5132424;27;20050;-60
2022/09/22 13:00:39;;;;;;;7.47;1.20;;;27.60;49.00;;;;;;5148001;27;20387;-60
2022/09/22 13:03:32;;;;;;;9.10;1.45;;;27.70;49.10;;;;;;5150051;27;20132;-61
2022/09/22 13:06:22;;;;;;;8.38;1.83;;;27.60;48.90;;;;;;5125505;27;20151;-60
2022/09/22 13:08:52;;;;;;;7.97;1.50;;;27.60;49.10;;;;;;5131998;27;20091;-59
2022/09/22 13:11:39;;;;;;;6.03;1.45;;;27.50;49.00;;;;;;5123987;27;20092;-59
2022/09/22 13:14:43;;;;;;;12.10;1.63;;;27.50;49.40;;;;;;5150474;27;20049;-61
2022/09/22 13:17:32;;;;;;;6.35;1.48;;;27.50;49.30;;;;;;5131395;27;20541;-60
2022/09/22 13:19:59;;;;;;;21.60;1.80;;;27.50;49.30;;;;;;5148770;27;20059;-65
2022/09/22 13:22:25;;;;;;;21.55;2.40;;;27.40;50.00;;;;;;5129590;27;20058;-61
2022/09/22 13:24:52;;;;;;;18.30;2.13;;;27.40;49.50;;;;;;5114815;27;20056;-60
2022/09/22 13:27:18;;;;;;;17.63;1.80;;;27.40;48.60;;;;;;5147159;27;20541;-59